sensor_id;sensor_type;location;lat;lon;timestamp;P1;durP1;ratioP1;P2;durP2;ratioP2
16813;SDS011;8524;57.650;11.926;2023-07-16T00:01:56;8.33;;;5.83;;
16813;SDS011;8524;57.650;11.926;2023-07-16T00:04:23;9.17;;;6.70;;
16813;SDS011;8524;57.650;11.926;2023-07-16T00:06:51;8.40;;;6.03;;
16813;SDS011;8524;57.650;11.926;2023-07-16T00:09:17;7.33;;;6.03;;
16813;SDS011;8524;57.650;11.926;2023-07-16T00:11:46;9.17;;;6.80;;
16813;SDS011;8524;57.650;11.926;2023-07-16T00:14:13;9.87;;;6.90;;
16813;SDS011;8524;57.650;11.926;2023-07-16T00:16:40;8.13;;;5.57;;
16813;SDS011;8524;57.650;11.926;2023-07-16T00:19:10;10.03;;;5.97;;
16813;SDS011;8524;57.650;11.926;2023-07-16T00:21:37;10.70;;;6.00;;
16813;SDS011;8524;57.650;11.926;2023-07-16T00:24:05;10.53;;;5.60;;
16813;SDS011;8524;57.650;11.926;2023-07-16T00:26:32;13.63;;;6.33;;
16813;SDS011;8524;57.650;11.926;2023-07-16T00:29:00;12.43;;;7.03;;
16813;SDS011;8524;57.650;11.926;2023-07-16T00:31:27;11.93;;;6.57;;
16813;SDS011;8524;57.650;11.926;2023-07-16T00:33:54;14.57;;;6.90;;
16813;SDS011;8524;57.650;11.926;2023-07-16T00:36:21;16.50;;;7.17;;
16813;SDS011;8524;57.650;11.926;2023-07-16T00:38:48;15.50;;;6.80;;
16813;SDS011;8524;57.650;11.926;2023-07-16T00:41:15;16.83;;;7.20;;
16813;SDS011;8524;57.650;11.926;2023-07-16T00:43:42;15.77;;;7.87;;
16813;SDS011;8524;57.650;11.926;2023-07-16T00:46:11;15.07;;;6.83;;
16813;SDS011;8524;57.650;11.926;2023-07-16T00:48:39;15.47;;;7.90;;
16813;SDS011;8524;57.650;11.926;2023-07-16T00:51:08;21.30;;;9.20;;
16813;SDS011;8524;57.650;11.926;2023-07-16T00:53:35;23.70;;;9.63;;
16813;SDS011;8524;57.650;11.926;2023-07-16T00:56:02;19.47;;;9.43;;
16813;SDS011;8524;57.650;11.926;2023-07-16T00:58:29;19.20;;;8.80;;
16813;SDS011;8524;57.650;11.926;2023-07-16T01:00:56;21.43;;;10.87;;
16813;SDS011;8524;57.650;11.926;2023-07-16T01:03:25;21.03;;;10.43;;
16813;SDS011;8524;57.650;11.926;2023-07-16T01:06:04;16.47;;;9.07;;
16813;SDS011;8524;57.650;11.926;2023-07-16T01:08:35;18.70;;;8.10;;
16813;SDS011;8524;57.650;11.926;2023-07-16T01:11:07;19.10;;;9.73;;
16813;SDS011;8524;57.650;11.926;2023-07-16T01:13:35;15.10;;;8.73;;
16813;SDS011;8524;57.650;11.926;2023-07-16T01:16:02;14.63;;;8.33;;
16813;SDS011;8524;57.650;11.926;2023-07-16T01:18:31;13.80;;;8.60;;
16813;SDS011;8524;57.650;11.926;2023-07-16T01:20:58;12.30;;;7.57;;
16813;SDS011;8524;57.650;11.926;2023-07-16T01:26:21;10.83;;;7.23;;
16813;SDS011;8524;57.650;11.926;2023-07-16T01:29:20;11.33;;;7.70;;
16813;SDS011;8524;57.650;11.926;2023-07-16T01:31:57;10.17;;;7.57;;
16813;SDS011;8524;57.650;11.926;2023-07-16T01:34:29;10.50;;;6.70;;
16813;SDS011;8524;57.650;11.926;2023-07-16T01:36:59;10.07;;;6.93;;
16813;SDS011;8524;57.650;11.926;2023-07-16T01:39:26;8.03;;;6.50;;
16813;SDS011;8524;57.650;11.926;2023-07-16T01:41:53;8.60;;;6.90;;
16813;SDS011;8524;57.650;11.926;2023-07-16T01:44:22;10.53;;;8.03;;
16813;SDS011;8524;57.650;11.926;2023-07-16T01:46:52;9.93;;;8.60;;
16813;SDS011;8524;57.650;11.926;2023-07-16T01:49:32;10.63;;;7.83;;
16813;SDS011;8524;57.650;11.926;2023-07-16T01:52:02;10.53;;;7.00;;
16813;SDS011;8524;57.650;11.926;2023-07-16T01:54:30;12.33;;;7.13;;
16813;SDS011;8524;57.650;11.926;2023-07-16T01:56:57;15.27;;;9.53;;
16813;SDS011;8524;57.650;11.926;2023-07-16T01:59:25;11.73;;;8.27;;
16813;SDS011;8524;57.650;11.926;2023-07-16T02:01:52;11.93;;;9.20;;
16813;SDS011;8524;57.650;11.926;2023-07-16T02:04:19;13.33;;;8.90;;
16813;SDS011;8524;57.650;11.926;2023-07-16T02:06:47;9.20;;;7.30;;
16813;SDS011;8524;57.650;11.926;2023-07-16T02:09:14;11.63;;;8.17;;
16813;SDS011;8524;57.650;11.926;2023-07-16T02:11:42;8.25;;;7.38;;
16813;SDS011;8524;57.650;11.926;2023-07-16T02:14:08;10.47;;;8.13;;
16813;SDS011;8524;57.650;11.926;2023-07-16T02:16:37;14.43;;;9.37;;
16813;SDS011;8524;57.650;11.926;2023-07-16T02:19:04;15.47;;;9.87;;
16813;SDS011;8524;57.650;11.926;2023-07-16T02:21:31;12.93;;;9.50;;
16813;SDS011;8524;57.650;11.926;2023-07-16T02:23:58;16.17;;;9.57;;
16813;SDS011;8524;57.650;11.926;2023-07-16T02:26:25;11.90;;;8.07;;
16813;SDS011;8524;57.650;11.926;2023-07-16T02:28:52;13.20;;;8.07;;
16813;SDS011;8524;57.650;11.926;2023-07-16T02:31:19;14.47;;;9.60;;
16813;SDS011;8524;57.650;11.926;2023-07-16T02:33:48;14.80;;;11.00;;
16813;SDS011;8524;57.650;11.926;2023-07-16T02:36:15;14.77;;;8.90;;
16813;SDS011;8524;57.650;11.926;2023-07-16T02:38:42;20.97;;;13.87;;
16813;SDS011;8524;57.650;11.926;2023-07-16T02:41:09;18.63;;;9.97;;
16813;SDS011;8524;57.650;11.926;2023-07-16T02:43:36;13.05;;;9.45;;
16813;SDS011;8524;57.650;11.926;2023-07-16T02:46:03;18.07;;;10.80;;
16813;SDS011;8524;57.650;11.926;2023-07-16T02:48:30;17.30;;;11.60;;
16813;SDS011;8524;57.650;11.926;2023-07-16T02:50:58;17.40;;;11.60;;
16813;SDS011;8524;57.650;11.926;2023-07-16T02:53:25;12.53;;;8.93;;
16813;SDS011;8524;57.650;11.926;2023-07-16T02:55:52;13.20;;;8.70;;
16813;SDS011;8524;57.650;11.926;2023-07-16T02:58:19;13.00;;;9.00;;
16813;SDS011;8524;57.650;11.926;2023-07-16T03:00:46;13.83;;;10.07;;
16813;SDS011;8524;57.650;11.926;2023-07-16T03:03:13;9.43;;;6.90;;
16813;SDS011;8524;57.650;11.926;2023-07-16T03:05:42;9.57;;;7.23;;
16813;SDS011;8524;57.650;11.926;2023-07-16T03:08:11;8.50;;;6.53;;
16813;SDS011;8524;57.650;11.926;2023-07-16T03:10:38;8.80;;;6.20;;
16813;SDS011;8524;57.650;11.926;2023-07-16T03:13:05;10.17;;;5.53;;
16813;SDS011;8524;57.650;11.926;2023-07-16T03:15:32;7.73;;;6.00;;
16813;SDS011;8524;57.650;11.926;2023-07-16T03:17:59;5.47;;;4.50;;
16813;SDS011;8524;57.650;11.926;2023-07-16T03:20:26;6.17;;;4.40;;
16813;SDS011;8524;57.650;11.926;2023-07-16T03:22:53;6.73;;;4.40;;
16813;SDS011;8524;57.650;11.926;2023-07-16T03:25:22;6.43;;;4.73;;
16813;SDS011;8524;57.650;11.926;2023-07-16T03:27:51;6.80;;;5.17;;
16813;SDS011;8524;57.650;11.926;2023-07-16T03:30:18;4.87;;;4.47;;
16813;SDS011;8524;57.650;11.926;2023-07-16T03:32:45;5.43;;;4.57;;
16813;SDS011;8524;57.650;11.926;2023-07-16T03:35:12;5.80;;;4.77;;
16813;SDS011;8524;57.650;11.926;2023-07-16T03:37:39;5.23;;;4.73;;
16813;SDS011;8524;57.650;11.926;2023-07-16T03:40:12;6.80;;;5.87;;
16813;SDS011;8524;57.650;11.926;2023-07-16T03:42:42;6.60;;;4.97;;
16813;SDS011;8524;57.650;11.926;2023-07-16T03:45:10;6.93;;;5.03;;
16813;SDS011;8524;57.650;11.926;2023-07-16T03:47:37;6.63;;;5.20;;
16813;SDS011;8524;57.650;11.926;2023-07-16T03:50:04;6.03;;;4.40;;
16813;SDS011;8524;57.650;11.926;2023-07-16T03:52:32;5.67;;;4.73;;
16813;SDS011;8524;57.650;11.926;2023-07-16T03:54:59;8.33;;;5.97;;
16813;SDS011;8524;57.650;11.926;2023-07-16T03:57:27;5.40;;;4.57;;
16813;SDS011;8524;57.650;11.926;2023-07-16T03:59:56;6.30;;;4.83;;
16813;SDS011;8524;57.650;11.926;2023-07-16T04:02:23;6.13;;;4.67;;
16813;SDS011;8524;57.650;11.926;2023-07-16T04:04:51;7.63;;;5.27;;
16813;SDS011;8524;57.650;11.926;2023-07-16T04:07:18;4.93;;;4.33;;
16813;SDS011;8524;57.650;11.926;2023-07-16T04:09:45;6.43;;;4.30;;
16813;SDS011;8524;57.650;11.926;2023-07-16T04:12:12;6.20;;;3.90;;
16813;SDS011;8524;57.650;11.926;2023-07-16T04:14:40;4.73;;;3.77;;
16813;SDS011;8524;57.650;11.926;2023-07-16T04:17:08;4.43;;;3.47;;
16813;SDS011;8524;57.650;11.926;2023-07-16T04:19:35;4.60;;;3.87;;
16813;SDS011;8524;57.650;11.926;2023-07-16T04:22:02;5.50;;;3.33;;
16813;SDS011;8524;57.650;11.926;2023-07-16T04:24:30;5.13;;;3.57;;
16813;SDS011;8524;57.650;11.926;2023-07-16T04:26:57;4.00;;;3.37;;
16813;SDS011;8524;57.650;11.926;2023-07-16T04:29:24;6.17;;;3.97;;
16813;SDS011;8524;57.650;11.926;2023-07-16T04:31:51;5.63;;;3.57;;
16813;SDS011;8524;57.650;11.926;2023-07-16T04:34:20;4.20;;;3.47;;
16813;SDS011;8524;57.650;11.926;2023-07-16T04:36:47;5.33;;;3.30;;
16813;SDS011;8524;57.650;11.926;2023-07-16T04:39:14;4.67;;;3.00;;
16813;SDS011;8524;57.650;11.926;2023-07-16T04:41:41;3.77;;;2.70;;
16813;SDS011;8524;57.650;11.926;2023-07-16T04:44:08;4.50;;;3.20;;
16813;SDS011;8524;57.650;11.926;2023-07-16T04:46:35;4.97;;;3.20;;
16813;SDS011;8524;57.650;11.926;2023-07-16T04:49:02;7.73;;;3.13;;
16813;SDS011;8524;57.650;11.926;2023-07-16T04:51:32;3.30;;;2.97;;
16813;SDS011;8524;57.650;11.926;2023-07-16T04:53:59;4.30;;;3.10;;
16813;SDS011;8524;57.650;11.926;2023-07-16T04:56:26;5.60;;;3.00;;
16813;SDS011;8524;57.650;11.926;2023-07-16T04:58:54;4.03;;;3.07;;
16813;SDS011;8524;57.650;11.926;2023-07-16T05:01:21;3.90;;;2.70;;
16813;SDS011;8524;57.650;11.926;2023-07-16T05:03:48;7.70;;;2.90;;
16813;SDS011;8524;57.650;11.926;2023-07-16T05:06:15;5.27;;;2.70;;
16813;SDS011;8524;57.650;11.926;2023-07-16T05:08:43;5.30;;;2.57;;
16813;SDS011;8524;57.650;11.926;2023-07-16T05:11:10;5.53;;;2.87;;
16813;SDS011;8524;57.650;11.926;2023-07-16T05:13:38;3.60;;;2.73;;
16813;SDS011;8524;57.650;11.926;2023-07-16T05:16:05;4.77;;;2.50;;
16813;SDS011;8524;57.650;11.926;2023-07-16T05:18:31;4.40;;;2.67;;
16813;SDS011;8524;57.650;11.926;2023-07-16T05:20:58;3.57;;;2.17;;
16813;SDS011;8524;57.650;11.926;2023-07-16T05:23:25;6.40;;;2.80;;
16813;SDS011;8524;57.650;11.926;2023-07-16T05:25:53;5.30;;;2.87;;
16813;SDS011;8524;57.650;11.926;2023-07-16T05:28:20;3.07;;;2.40;;
16813;SDS011;8524;57.650;11.926;2023-07-16T05:30:47;4.80;;;2.10;;
16813;SDS011;8524;57.650;11.926;2023-07-16T05:33:23;3.03;;;2.50;;
16813;SDS011;8524;57.650;11.926;2023-07-16T05:35:50;5.87;;;2.90;;
16813;SDS011;8524;57.650;11.926;2023-07-16T05:38:17;3.13;;;2.30;;
16813;SDS011;8524;57.650;11.926;2023-07-16T05:40:44;4.33;;;2.50;;
16813;SDS011;8524;57.650;11.926;2023-07-16T05:43:12;3.03;;;2.20;;
16813;SDS011;8524;57.650;11.926;2023-07-16T05:45:40;3.57;;;2.10;;
16813;SDS011;8524;57.650;11.926;2023-07-16T05:48:07;3.97;;;2.07;;
16813;SDS011;8524;57.650;11.926;2023-07-16T05:50:34;4.93;;;2.37;;
16813;SDS011;8524;57.650;11.926;2023-07-16T05:53:01;2.90;;;2.10;;
16813;SDS011;8524;57.650;11.926;2023-07-16T05:55:28;5.07;;;2.30;;
16813;SDS011;8524;57.650;11.926;2023-07-16T05:57:55;2.10;;;1.90;;
16813;SDS011;8524;57.650;11.926;2023-07-16T06:00:23;4.13;;;2.40;;
16813;SDS011;8524;57.650;11.926;2023-07-16T06:02:50;4.63;;;2.40;;
16813;SDS011;8524;57.650;11.926;2023-07-16T06:05:17;2.70;;;2.20;;
16813;SDS011;8524;57.650;11.926;2023-07-16T06:07:44;3.63;;;2.70;;
16813;SDS011;8524;57.650;11.926;2023-07-16T06:10:11;6.43;;;2.60;;
16813;SDS011;8524;57.650;11.926;2023-07-16T06:12:38;5.80;;;2.43;;
16813;SDS011;8524;57.650;11.926;2023-07-16T06:15:06;4.13;;;2.90;;
16813;SDS011;8524;57.650;11.926;2023-07-16T06:17:35;5.43;;;2.53;;
16813;SDS011;8524;57.650;11.926;2023-07-16T06:20:02;4.37;;;2.77;;
16813;SDS011;8524;57.650;11.926;2023-07-16T06:22:29;4.90;;;2.83;;
16813;SDS011;8524;57.650;11.926;2023-07-16T06:24:56;5.43;;;3.10;;
16813;SDS011;8524;57.650;11.926;2023-07-16T06:27:24;6.03;;;2.70;;
16813;SDS011;8524;57.650;11.926;2023-07-16T06:29:51;7.53;;;2.97;;
16813;SDS011;8524;57.650;11.926;2023-07-16T06:32:18;8.77;;;3.17;;
16813;SDS011;8524;57.650;11.926;2023-07-16T06:34:47;5.97;;;2.70;;
16813;SDS011;8524;57.650;11.926;2023-07-16T06:37:14;6.10;;;2.40;;
16813;SDS011;8524;57.650;11.926;2023-07-16T06:39:41;8.20;;;2.80;;
16813;SDS011;8524;57.650;11.926;2023-07-16T06:42:08;4.93;;;2.60;;
16813;SDS011;8524;57.650;11.926;2023-07-16T06:44:35;6.67;;;3.13;;
16813;SDS011;8524;57.650;11.926;2023-07-16T06:47:02;5.80;;;2.80;;
16813;SDS011;8524;57.650;11.926;2023-07-16T06:49:29;5.30;;;2.50;;
16813;SDS011;8524;57.650;11.926;2023-07-16T06:51:59;5.30;;;2.43;;
16813;SDS011;8524;57.650;11.926;2023-07-16T06:54:27;6.00;;;2.83;;
16813;SDS011;8524;57.650;11.926;2023-07-16T06:56:54;7.93;;;3.13;;
16813;SDS011;8524;57.650;11.926;2023-07-16T06:59:22;8.70;;;3.00;;
16813;SDS011;8524;57.650;11.926;2023-07-16T07:01:49;5.97;;;2.90;;
16813;SDS011;8524;57.650;11.926;2023-07-16T07:04:16;6.83;;;2.90;;
16813;SDS011;8524;57.650;11.926;2023-07-16T07:06:43;6.00;;;2.57;;
16813;SDS011;8524;57.650;11.926;2023-07-16T07:09:11;4.33;;;2.87;;
16813;SDS011;8524;57.650;11.926;2023-07-16T07:11:38;5.87;;;2.80;;
16813;SDS011;8524;57.650;11.926;2023-07-16T07:14:05;7.70;;;2.83;;
16813;SDS011;8524;57.650;11.926;2023-07-16T07:16:32;5.53;;;2.73;;
16813;SDS011;8524;57.650;11.926;2023-07-16T07:18:59;6.57;;;2.50;;
16813;SDS011;8524;57.650;11.926;2023-07-16T07:21:27;5.65;;;2.80;;
16813;SDS011;8524;57.650;11.926;2023-07-16T07:23:54;8.10;;;2.90;;
16813;SDS011;8524;57.650;11.926;2023-07-16T07:26:22;8.03;;;2.80;;
16813;SDS011;8524;57.650;11.926;2023-07-16T07:28:49;7.10;;;2.60;;
16813;SDS011;8524;57.650;11.926;2023-07-16T07:31:17;8.03;;;3.17;;
16813;SDS011;8524;57.650;11.926;2023-07-16T07:33:44;8.07;;;3.27;;
16813;SDS011;8524;57.650;11.926;2023-07-16T07:36:11;8.33;;;3.17;;
16813;SDS011;8524;57.650;11.926;2023-07-16T07:38:38;8.40;;;3.50;;
16813;SDS011;8524;57.650;11.926;2023-07-16T07:41:05;10.77;;;3.43;;
16813;SDS011;8524;57.650;11.926;2023-07-16T07:43:33;8.97;;;3.43;;
16813;SDS011;8524;57.650;11.926;2023-07-16T07:46:00;10.67;;;3.40;;
16813;SDS011;8524;57.650;11.926;2023-07-16T07:48:27;8.83;;;3.17;;
16813;SDS011;8524;57.650;11.926;2023-07-16T07:50:54;6.80;;;3.50;;
16813;SDS011;8524;57.650;11.926;2023-07-16T07:53:21;9.53;;;3.23;;
16813;SDS011;8524;57.650;11.926;2023-07-16T07:55:48;7.73;;;2.93;;
16813;SDS011;8524;57.650;11.926;2023-07-16T07:58:15;7.73;;;3.20;;
16813;SDS011;8524;57.650;11.926;2023-07-16T08:00:44;8.57;;;3.30;;
16813;SDS011;8524;57.650;11.926;2023-07-16T08:03:11;7.10;;;3.43;;
16813;SDS011;8524;57.650;11.926;2023-07-16T08:05:38;6.10;;;2.80;;
16813;SDS011;8524;57.650;11.926;2023-07-16T08:08:05;5.93;;;2.70;;
16813;SDS011;8524;57.650;11.926;2023-07-16T08:10:32;7.10;;;3.07;;
16813;SDS011;8524;57.650;11.926;2023-07-16T08:12:59;6.00;;;3.00;;
16813;SDS011;8524;57.650;11.926;2023-07-16T08:15:26;7.90;;;3.00;;
16813;SDS011;8524;57.650;11.926;2023-07-16T08:17:55;6.90;;;3.23;;
16813;SDS011;8524;57.650;11.926;2023-07-16T08:20:24;9.53;;;3.47;;
16813;SDS011;8524;57.650;11.926;2023-07-16T08:22:51;7.93;;;3.40;;
16813;SDS011;8524;57.650;11.926;2023-07-16T08:25:18;9.38;;;4.60;;
16813;SDS011;8524;57.650;11.926;2023-07-16T08:27:46;12.10;;;4.77;;
16813;SDS011;8524;57.650;11.926;2023-07-16T08:30:13;12.50;;;4.40;;
16813;SDS011;8524;57.650;11.926;2023-07-16T08:32:40;12.90;;;4.47;;
16813;SDS011;8524;57.650;11.926;2023-07-16T08:35:09;10.20;;;4.20;;
16813;SDS011;8524;57.650;11.926;2023-07-16T08:37:41;9.83;;;4.70;;
16813;SDS011;8524;57.650;11.926;2023-07-16T08:40:08;11.30;;;4.63;;
16813;SDS011;8524;57.650;11.926;2023-07-16T08:42:37;10.17;;;4.60;;
16813;SDS011;8524;57.650;11.926;2023-07-16T08:45:05;12.67;;;4.70;;
16813;SDS011;8524;57.650;11.926;2023-07-16T08:47:35;9.73;;;4.40;;
16813;SDS011;8524;57.650;11.926;2023-07-16T08:50:02;11.97;;;4.60;;
16813;SDS011;8524;57.650;11.926;2023-07-16T08:52:31;11.65;;;5.05;;
16813;SDS011;8524;57.650;11.926;2023-07-16T08:54:58;10.10;;;4.73;;
16813;SDS011;8524;57.650;11.926;2023-07-16T08:57:25;12.00;;;4.80;;
16813;SDS011;8524;57.650;11.926;2023-07-16T08:59:53;11.40;;;4.97;;
16813;SDS011;8524;57.650;11.926;2023-07-16T09:02:21;10.57;;;4.80;;
16813;SDS011;8524;57.650;11.926;2023-07-16T09:04:49;9.77;;;4.40;;
16813;SDS011;8524;57.650;11.926;2023-07-16T09:07:16;8.93;;;4.93;;
16813;SDS011;8524;57.650;11.926;2023-07-16T09:09:54;12.93;;;5.60;;
16813;SDS011;8524;57.650;11.926;2023-07-16T09:12:23;9.37;;;4.53;;
16813;SDS011;8524;57.650;11.926;2023-07-16T09:14:50;10.70;;;5.57;;
16813;SDS011;8524;57.650;11.926;2023-07-16T09:17:19;10.87;;;5.47;;
16813;SDS011;8524;57.650;11.926;2023-07-16T09:19:47;11.47;;;5.53;;
16813;SDS011;8524;57.650;11.926;2023-07-16T09:22:16;12.33;;;5.33;;
16813;SDS011;8524;57.650;11.926;2023-07-16T09:24:45;11.63;;;5.40;;
16813;SDS011;8524;57.650;11.926;2023-07-16T09:27:13;12.30;;;5.83;;
16813;SDS011;8524;57.650;11.926;2023-07-16T09:29:40;14.43;;;6.20;;
16813;SDS011;8524;57.650;11.926;2023-07-16T09:32:08;12.37;;;5.53;;
16813;SDS011;8524;57.650;11.926;2023-07-16T09:34:35;12.53;;;6.27;;
16813;SDS011;8524;57.650;11.926;2023-07-16T09:37:03;14.10;;;6.13;;
16813;SDS011;8524;57.650;11.926;2023-07-16T09:39:31;14.77;;;6.07;;
16813;SDS011;8524;57.650;11.926;2023-07-16T09:42:00;13.23;;;5.67;;
16813;SDS011;8524;57.650;11.926;2023-07-16T09:44:29;10.67;;;6.00;;
16813;SDS011;8524;57.650;11.926;2023-07-16T09:46:56;13.47;;;5.80;;
16813;SDS011;8524;57.650;11.926;2023-07-16T09:49:23;10.83;;;5.53;;
16813;SDS011;8524;57.650;11.926;2023-07-16T09:51:52;11.40;;;5.73;;
16813;SDS011;8524;57.650;11.926;2023-07-16T09:54:23;12.53;;;5.53;;
16813;SDS011;8524;57.650;11.926;2023-07-16T09:56:54;11.23;;;5.00;;
16813;SDS011;8524;57.650;11.926;2023-07-16T09:59:26;14.67;;;5.83;;
16813;SDS011;8524;57.650;11.926;2023-07-16T10:01:55;17.30;;;6.13;;
16813;SDS011;8524;57.650;11.926;2023-07-16T10:04:23;10.23;;;5.77;;
16813;SDS011;8524;57.650;11.926;2023-07-16T10:06:54;12.00;;;5.03;;
16813;SDS011;8524;57.650;11.926;2023-07-16T10:09:38;13.80;;;6.33;;
16813;SDS011;8524;57.650;11.926;2023-07-16T10:12:12;16.63;;;5.97;;
16813;SDS011;8524;57.650;11.926;2023-07-16T10:14:42;13.90;;;5.93;;
16813;SDS011;8524;57.650;11.926;2023-07-16T10:17:16;11.20;;;6.03;;
16813;SDS011;8524;57.650;11.926;2023-07-16T10:19:48;12.67;;;6.20;;
16813;SDS011;8524;57.650;11.926;2023-07-16T10:22:17;15.63;;;6.67;;
16813;SDS011;8524;57.650;11.926;2023-07-16T10:24:51;11.87;;;5.90;;
16813;SDS011;8524;57.650;11.926;2023-07-16T10:27:26;15.67;;;5.87;;
16813;SDS011;8524;57.650;11.926;2023-07-16T10:29:56;17.27;;;6.33;;
16813;SDS011;8524;57.650;11.926;2023-07-16T10:32:25;13.03;;;5.40;;
16813;SDS011;8524;57.650;11.926;2023-07-16T10:34:54;13.17;;;5.43;;
16813;SDS011;8524;57.650;11.926;2023-07-16T10:37:22;10.13;;;4.93;;
16813;SDS011;8524;57.650;11.926;2023-07-16T10:39:50;12.27;;;5.20;;
16813;SDS011;8524;57.650;11.926;2023-07-16T10:42:18;9.30;;;4.70;;
16813;SDS011;8524;57.650;11.926;2023-07-16T10:44:48;13.63;;;5.60;;
16813;SDS011;8524;57.650;11.926;2023-07-16T10:47:22;11.17;;;5.50;;
16813;SDS011;8524;57.650;11.926;2023-07-16T10:49:50;10.35;;;5.40;;
16813;SDS011;8524;57.650;11.926;2023-07-16T10:52:19;10.93;;;5.73;;
16813;SDS011;8524;57.650;11.926;2023-07-16T10:54:46;10.80;;;5.67;;
16813;SDS011;8524;57.650;11.926;2023-07-16T10:57:13;12.27;;;5.23;;
16813;SDS011;8524;57.650;11.926;2023-07-16T10:59:42;14.43;;;5.33;;
16813;SDS011;8524;57.650;11.926;2023-07-16T11:02:20;12.57;;;6.03;;
16813;SDS011;8524;57.650;11.926;2023-07-16T11:04:48;11.53;;;5.83;;
16813;SDS011;8524;57.650;11.926;2023-07-16T11:07:15;11.47;;;5.53;;
16813;SDS011;8524;57.650;11.926;2023-07-16T11:09:43;10.43;;;5.17;;
16813;SDS011;8524;57.650;11.926;2023-07-16T11:12:11;14.30;;;5.70;;
16813;SDS011;8524;57.650;11.926;2023-07-16T11:14:41;14.40;;;6.00;;
16813;SDS011;8524;57.650;11.926;2023-07-16T11:17:10;13.70;;;5.97;;
16813;SDS011;8524;57.650;11.926;2023-07-16T11:19:40;11.57;;;5.20;;
16813;SDS011;8524;57.650;11.926;2023-07-16T11:22:10;13.63;;;5.80;;
16813;SDS011;8524;57.650;11.926;2023-07-16T11:24:38;13.53;;;6.33;;
16813;SDS011;8524;57.650;11.926;2023-07-16T11:27:06;12.13;;;5.43;;
16813;SDS011;8524;57.650;11.926;2023-07-16T11:29:39;14.30;;;5.33;;
16813;SDS011;8524;57.650;11.926;2023-07-16T11:32:07;13.13;;;5.70;;
16813;SDS011;8524;57.650;11.926;2023-07-16T11:34:35;11.17;;;5.13;;
16813;SDS011;8524;57.650;11.926;2023-07-16T11:37:10;14.17;;;5.77;;
16813;SDS011;8524;57.650;11.926;2023-07-16T11:39:37;12.93;;;5.17;;
16813;SDS011;8524;57.650;11.926;2023-07-16T11:42:05;8.73;;;4.90;;
16813;SDS011;8524;57.650;11.926;2023-07-16T11:44:33;13.40;;;5.67;;
16813;SDS011;8524;57.650;11.926;2023-07-16T11:47:00;13.23;;;5.43;;
16813;SDS011;8524;57.650;11.926;2023-07-16T11:49:28;10.97;;;5.13;;
16813;SDS011;8524;57.650;11.926;2023-07-16T11:51:56;15.67;;;5.50;;
16813;SDS011;8524;57.650;11.926;2023-07-16T11:54:25;10.85;;;5.10;;
16813;SDS011;8524;57.650;11.926;2023-07-16T11:56:52;10.20;;;4.87;;
16813;SDS011;8524;57.650;11.926;2023-07-16T11:59:19;15.47;;;5.73;;
16813;SDS011;8524;57.650;11.926;2023-07-16T12:01:47;15.83;;;5.90;;
16813;SDS011;8524;57.650;11.926;2023-07-16T12:04:15;12.83;;;5.30;;
16813;SDS011;8524;57.650;11.926;2023-07-16T12:06:42;14.03;;;5.87;;
16813;SDS011;8524;57.650;11.926;2023-07-16T12:09:09;14.27;;;5.17;;
16813;SDS011;8524;57.650;11.926;2023-07-16T12:11:38;12.67;;;5.47;;
16813;SDS011;8524;57.650;11.926;2023-07-16T12:14:05;12.87;;;5.37;;
16813;SDS011;8524;57.650;11.926;2023-07-16T12:16:32;13.90;;;5.90;;
16813;SDS011;8524;57.650;11.926;2023-07-16T12:18:59;11.73;;;5.50;;
16813;SDS011;8524;57.650;11.926;2023-07-16T12:21:26;12.00;;;5.47;;
16813;SDS011;8524;57.650;11.926;2023-07-16T12:23:53;17.40;;;5.47;;
16813;SDS011;8524;57.650;11.926;2023-07-16T12:26:20;9.77;;;5.23;;
16813;SDS011;8524;57.650;11.926;2023-07-16T12:28:49;11.67;;;5.10;;
16813;SDS011;8524;57.650;11.926;2023-07-16T12:31:16;11.30;;;5.47;;
16813;SDS011;8524;57.650;11.926;2023-07-16T12:33:43;12.03;;;4.73;;
16813;SDS011;8524;57.650;11.926;2023-07-16T12:36:10;9.40;;;4.67;;
16813;SDS011;8524;57.650;11.926;2023-07-16T12:38:37;9.07;;;4.40;;
16813;SDS011;8524;57.650;11.926;2023-07-16T12:41:04;12.48;;;5.30;;
16813;SDS011;8524;57.650;11.926;2023-07-16T12:43:32;14.60;;;4.93;;
16813;SDS011;8524;57.650;11.926;2023-07-16T12:46:01;11.67;;;4.53;;
16813;SDS011;8524;57.650;11.926;2023-07-16T12:48:29;11.70;;;4.73;;
16813;SDS011;8524;57.650;11.926;2023-07-16T12:50:56;12.47;;;5.27;;
16813;SDS011;8524;57.650;11.926;2023-07-16T12:53:23;14.25;;;6.18;;
16813;SDS011;8524;57.650;11.926;2023-07-16T12:55:50;11.57;;;5.00;;
16813;SDS011;8524;57.650;11.926;2023-07-16T12:58:18;10.77;;;5.70;;
16813;SDS011;8524;57.650;11.926;2023-07-16T13:00:45;12.57;;;5.43;;
16813;SDS011;8524;57.650;11.926;2023-07-16T13:03:13;12.83;;;5.50;;
16813;SDS011;8524;57.650;11.926;2023-07-16T13:05:41;10.00;;;4.97;;
16813;SDS011;8524;57.650;11.926;2023-07-16T13:08:09;9.37;;;4.90;;
16813;SDS011;8524;57.650;11.926;2023-07-16T13:10:36;12.47;;;4.67;;
16813;SDS011;8524;57.650;11.926;2023-07-16T13:13:03;10.88;;;5.18;;
16813;SDS011;8524;57.650;11.926;2023-07-16T13:15:31;10.50;;;4.50;;
16813;SDS011;8524;57.650;11.926;2023-07-16T13:17:59;10.40;;;4.43;;
16813;SDS011;8524;57.650;11.926;2023-07-16T13:20:27;9.80;;;4.90;;
16813;SDS011;8524;57.650;11.926;2023-07-16T13:22:55;11.13;;;5.07;;
16813;SDS011;8524;57.650;11.926;2023-07-16T13:25:22;12.17;;;4.70;;
16813;SDS011;8524;57.650;11.926;2023-07-16T13:27:49;10.73;;;5.13;;
16813;SDS011;8524;57.650;11.926;2023-07-16T13:30:18;12.23;;;4.70;;
16813;SDS011;8524;57.650;11.926;2023-07-16T13:32:45;13.37;;;5.57;;
16813;SDS011;8524;57.650;11.926;2023-07-16T13:35:13;10.73;;;5.27;;
16813;SDS011;8524;57.650;11.926;2023-07-16T13:37:42;13.73;;;5.93;;
16813;SDS011;8524;57.650;11.926;2023-07-16T13:40:11;9.63;;;5.23;;
16813;SDS011;8524;57.650;11.926;2023-07-16T13:42:38;10.90;;;4.87;;
16813;SDS011;8524;57.650;11.926;2023-07-16T13:45:06;10.53;;;5.03;;
16813;SDS011;8524;57.650;11.926;2023-07-16T13:47:33;11.10;;;4.97;;
16813;SDS011;8524;57.650;11.926;2023-07-16T13:50:00;10.70;;;4.67;;
16813;SDS011;8524;57.650;11.926;2023-07-16T13:52:27;15.27;;;6.13;;
16813;SDS011;8524;57.650;11.926;2023-07-16T13:54:56;13.77;;;4.93;;
16813;SDS011;8524;57.650;11.926;2023-07-16T13:57:23;14.83;;;5.67;;
16813;SDS011;8524;57.650;11.926;2023-07-16T13:59:50;12.63;;;5.20;;
16813;SDS011;8524;57.650;11.926;2023-07-16T14:02:17;12.77;;;5.20;;
16813;SDS011;8524;57.650;11.926;2023-07-16T14:04:45;13.83;;;5.40;;
16813;SDS011;8524;57.650;11.926;2023-07-16T14:07:12;14.33;;;5.03;;
16813;SDS011;8524;57.650;11.926;2023-07-16T14:09:39;10.40;;;4.80;;
16813;SDS011;8524;57.650;11.926;2023-07-16T14:12:08;9.73;;;4.30;;
16813;SDS011;8524;57.650;11.926;2023-07-16T14:14:35;9.23;;;3.70;;
16813;SDS011;8524;57.650;11.926;2023-07-16T14:17:02;11.13;;;4.40;;
16813;SDS011;8524;57.650;11.926;2023-07-16T14:19:30;10.67;;;4.23;;
16813;SDS011;8524;57.650;11.926;2023-07-16T14:21:56;10.90;;;4.47;;
16813;SDS011;8524;57.650;11.926;2023-07-16T14:24:27;10.47;;;4.67;;
16813;SDS011;8524;57.650;11.926;2023-07-16T14:26:57;11.33;;;4.20;;
16813;SDS011;8524;57.650;11.926;2023-07-16T14:29:26;11.67;;;4.20;;
16813;SDS011;8524;57.650;11.926;2023-07-16T14:31:54;13.53;;;4.47;;
16813;SDS011;8524;57.650;11.926;2023-07-16T14:34:21;11.20;;;4.77;;
16813;SDS011;8524;57.650;11.926;2023-07-16T14:36:48;12.07;;;4.23;;
16813;SDS011;8524;57.650;11.926;2023-07-16T14:39:15;12.73;;;4.53;;
16813;SDS011;8524;57.650;11.926;2023-07-16T14:41:42;9.90;;;4.63;;
16813;SDS011;8524;57.650;11.926;2023-07-16T14:44:09;14.63;;;4.60;;
16813;SDS011;8524;57.650;11.926;2023-07-16T14:46:38;12.20;;;4.73;;
16813;SDS011;8524;57.650;11.926;2023-07-16T14:49:05;10.70;;;4.17;;